Time;durP1;ratioP1;P1;durP2;ratioP2;P2;SDS_P1;SDS_P2;PMS_P1;PMS_P2;Temp;Humidity;BMP_temperature;BMP_pressure;BME280_temperature;BME280_humidity;BME280_pressure;Samples;Min_cycle;Max_cycle;Signal;HPM_P1;HPM_P2
2023/10/07 00:00:32;;;;;;;9.32;6.28;;;;;;;22.29;49.27;100479.06;5050176;28;20044;-44
2023/10/07 00:03:03;;;;;;;10.65;6.40;;;;;;;21.99;50.41;100472.34;5050210;28;20482;-43
2023/10/07 00:05:32;;;;;;;13.10;7.18;;;;;;;22.05;50.41;100484.88;5050118;28;20048;-45
2023/10/07 00:08:00;;;;;;;8.50;6.17;;;;;;;22.00;50.37;100491.06;5050142;28;20024;-43
2023/10/07 00:10:30;;;;;;;12.55;6.80;;;;;;;22.00;50.40;100487.53;5049443;28;20388;-45
2023/10/07 00:13:03;;;;;;;9.18;6.35;;;;;;;22.05;50.58;100493.00;5049805;28;20623;-44
2023/10/07 00:15:29;;;;;;;9.80;7.07;;;;;;;21.97;51.07;100493.47;5049682;28;20498;-43
2023/10/07 00:18:04;;;;;;;10.10;6.90;;;;;;;22.02;51.03;100491.59;5050289;28;20024;-42
2023/10/07 00:20:33;;;;;;;10.45;7.00;;;;;;;22.04;50.87;100497.59;5050232;28;20080;-44
2023/10/07 00:23:00;;;;;;;9.68;7.13;;;;;;;21.91;51.51;100495.31;5049948;28;20017;-42
2023/10/07 00:25:30;;;;;;;14.38;7.28;;;;;;;21.95;51.41;100498.34;5049725;28;20110;-42
2023/10/07 00:27:56;;;;;;;9.13;6.50;;;;;;;21.88;51.40;100500.47;5049815;28;20040;-42
2023/10/07 00:30:22;;;;;;;12.15;6.85;;;;;;;21.96;51.16;100508.13;5049893;28;20034;-45
2023/10/07 00:32:50;;;;;;;8.90;6.47;;;;;;;22.00;50.96;100503.81;5049738;28;20021;-43
2023/10/07 00:35:19;;;;;;;9.90;6.50;;;;;;;21.95;51.52;100511.88;5050063;28;20024;-43
2023/10/07 00:37:45;;;;;;;9.35;6.50;;;;;;;22.03;51.13;100514.13;5049966;28;20302;-44
2023/10/07 00:40:14;;;;;;;10.68;6.75;;;;;;;21.96;51.41;100511.63;5049941;28;20434;-45
2023/10/07 00:42:45;;;;;;;;;;;;;;;22.28;50.79;100518.09;5053600;28;20094;-42
2023/10/07 00:45:20;;;;;;;9.38;6.75;;;;;;;22.10;51.04;100520.13;5052905;28;19915;-44
2023/10/07 00:47:49;;;;;;;13.15;7.20;;;;;;;21.97;51.50;100516.00;5052975;28;20029;-43
2023/10/07 00:50:15;;;;;;;;;;;;;;;22.11;51.33;100513.63;5053361;28;20113;-43
2023/10/07 00:52:55;;;;;;;9.88;6.70;;;;;;;22.02;51.34;100512.47;5053510;28;19995;-43
2023/10/07 00:55:29;;;;;;;10.10;6.60;;;;;;;21.93;51.60;100505.91;5053577;28;20486;-45
2023/10/07 00:58:13;;;;;;;11.95;6.57;;;;;;;21.88;51.57;100516.72;5052384;28;20027;-44
2023/10/07 01:03:51;;;;;;;9.73;6.95;;;;;;;21.82;51.85;100510.47;5052684;28;20028;-44
2023/10/07 01:08:29;;;;;;;10.43;7.03;;;;;;;21.66;52.45;100512.22;5053160;28;20045;-44
2023/10/07 01:11:06;;;;;;;11.27;6.80;;;;;;;21.69;52.33;100500.88;5053195;28;20059;-42
2023/10/07 01:13:33;;;;;;;10.02;6.63;;;;;;;21.71;51.92;100512.25;5053314;28;20151;-44
2023/10/07 01:15:59;;;;;;;8.68;6.57;;;;;;;21.65;51.66;100511.41;5052574;28;20452;-41
2023/10/07 01:18:27;;;;;;;10.90;6.57;;;;;;;21.62;51.62;100502.97;5052537;28;20029;-44
2023/10/07 01:23:23;;;;;;;9.43;6.13;;;;;;;21.47;50.49;100499.06;5052937;28;20109;-47
2023/10/07 01:25:52;;;;;;;9.77;6.57;;;;;;;21.26;51.33;100511.56;5051264;28;20021;-43
2023/10/07 01:28:20;;;;;;;9.98;6.45;;;;;;;21.28;50.67;100506.72;5052788;28;20028;-43
2023/10/07 01:31:23;;;;;;;10.15;6.03;;;;;;;21.26;51.26;100500.72;5052758;28;20025;-43
2023/10/07 01:33:46;;;;;;;9.32;6.13;;;;;;;21.22;51.50;100506.91;5051508;28;20482;-42
2023/10/07 01:38:52;;;;;;;8.93;4.82;;;;;;;20.98;48.78;100507.22;5052698;28;20032;-44
2023/10/07 01:41:19;;;;;;;8.63;4.60;;;;;;;20.97;47.62;100500.16;5052700;28;20024;-42
2023/10/07 01:44:04;;;;;;;7.63;4.00;;;;;;;20.97;45.91;100500.16;5053002;28;20021;-46
2023/10/07 01:46:31;;;;;;;7.10;3.80;;;;;;;21.03;44.28;100496.44;5053004;28;20078;-44
2023/10/07 01:49:04;;;;;;;8.88;3.90;;;;;;;21.02;44.12;100496.72;5052159;28;20028;-43
2023/10/07 01:51:31;;;;;;;5.93;3.50;;;;;;;20.85;44.07;100492.19;5051600;28;20021;-45
2023/10/07 01:53:58;;;;;;;4.05;3.17;;;;;;;20.82;45.37;100487.28;5051139;28;20032;-44
2023/10/07 01:56:26;;;;;;;5.30;3.35;;;;;;;20.47;44.77;100490.38;5051569;28;20033;-45
2023/10/07 01:59:04;;;;;;;6.97;3.38;;;;;;;20.51;43.37;100489.59;5052100;28;20017;-43
2023/10/07 02:01:30;;;;;;;6.63;2.95;;;;;;;20.60;42.60;100487.31;5052152;28;20047;-44
2023/10/07 02:03:59;;;;;;;4.57;2.95;;;;;;;20.70;41.80;100487.44;5052298;28;20024;-43
2023/10/07 02:06:26;;;;;;;4.03;2.50;;;;;;;20.61;41.29;100488.13;5052572;28;20033;-42
2023/10/07 02:08:55;;;;;;;4.40;2.60;;;;;;;20.69;40.99;100488.53;5051810;28;20063;-44
2023/10/07 02:11:28;;;;;;;6.70;3.00;;;;;;;20.30;41.00;100472.31;5051599;28;20027;-43
2023/10/07 02:13:55;;;;;;;4.85;2.88;;;;;;;20.38;40.88;100481.88;5051842;28;20071;-43
2023/10/07 02:16:21;;;;;;;4.07;2.67;;;;;;;20.45;40.48;100481.69;5051755;28;20036;-44
2023/10/07 02:18:47;;;;;;;4.88;2.85;;;;;;;20.47;40.97;100484.97;5051419;28;20025;-43
2023/10/07 02:21:16;;;;;;;6.38;2.45;;;;;;;20.49;40.41;100482.81;5052594;28;20029;-46
2023/10/07 02:23:45;;;;;;;4.13;2.53;;;;;;;20.57;41.28;100482.38;5052474;28;20108;-46
2023/10/07 02:26:22;;;;;;;5.45;2.83;;;;;;;20.58;40.71;100480.47;5052173;28;20024;-45
2023/10/07 02:28:51;;;;;;;5.93;2.67;;;;;;;20.52;40.64;100487.72;5051221;28;20021;-45
2023/10/07 02:31:20;;;;;;;4.45;2.78;;;;;;;20.42;41.06;100487.59;5050779;28;20025;-46
2023/10/07 02:33:51;;;;;;;4.55;2.58;;;;;;;20.39;40.98;100485.38;5050834;28;20029;-43
2023/10/07 02:36:36;;;;;;;4.88;2.90;;;;;;;20.32;40.75;100480.16;5050889;28;20025;-44
2023/10/07 02:39:27;;;;;;;6.47;2.70;;;;;;;20.26;40.92;100484.69;5050946;28;20095;-43
2023/10/07 02:41:53;;;;;;;6.13;2.72;;;;;;;20.22;41.37;100488.97;5051849;28;20183;-47
2023/10/07 02:44:28;;;;;;;3.80;2.63;;;;;;;20.11;40.89;100487.19;5051586;28;20039;-44
2023/10/07 02:46:56;;;;;;;5.00;2.58;;;;;;;20.06;41.83;100485.22;5051674;28;20168;-44
2023/10/07 02:49:25;;;;;;;4.03;2.77;;;;;;;20.10;41.57;100475.56;5050940;28;20095;-40
2023/10/07 02:51:55;;;;;;;6.40;2.97;;;;;;;20.08;41.07;100487.66;5050812;28;20074;-46
2023/10/07 02:54:22;;;;;;;4.40;2.53;;;;;;;20.12;40.87;100480.69;5050821;28;20047;-44
2023/10/07 02:57:24;;;;;;;4.88;2.63;;;;;;;20.14;41.58;100486.66;5050692;28;20132;-46
2023/10/07 03:00:00;;;;;;;6.28;2.80;;;;;;;20.02;40.84;100478.66;5050991;28;20036;-46
2023/10/07 03:02:37;;;;;;;5.45;2.63;;;;;;;19.42;41.02;100479.31;5051073;28;20036;-44
2023/10/07 03:07:34;;;;;;;7.05;2.92;;;;;;;19.63;41.42;100481.31;5050652;28;20082;-46
2023/10/07 03:10:16;;;;;;;5.80;2.63;;;;;;;19.56;41.62;100486.03;5050419;28;20035;-44
2023/10/07 03:12:48;;;;;;;4.40;2.80;;;;;;;19.66;41.33;100485.38;5050724;28;20033;-46
2023/10/07 03:15:26;;;;;;;5.18;2.50;;;;;;;19.27;41.99;100485.28;5050467;28;20028;-43
2023/10/07 03:17:52;;;;;;;5.10;2.60;;;;;;;18.65;43.30;100488.66;5050524;28;20037;-44
2023/10/07 03:20:28;;;;;;;4.70;2.55;;;;;;;18.57;43.74;100497.94;5050584;28;20542;-42
2023/10/07 03:23:12;;;;;;;4.85;2.72;;;;;;;18.59;43.49;100490.44;5050470;28;20024;-43
2023/10/07 03:28:30;;;;;;;5.65;2.60;;;;;;;19.19;42.70;100491.91;5050416;28;20083;-43
2023/10/07 03:30:56;;;;;;;6.50;2.72;;;;;;;19.37;42.10;100490.84;5049934;28;20094;-44
2023/10/07 03:34:08;;;;;;;6.25;2.70;;;;;;;18.89;42.78;100494.84;5050199;28;20025;-41
2023/10/07 03:38:55;;;;;;;5.78;2.60;;;;;;;18.97;43.24;100504.44;5049934;28;20021;-44
2023/10/07 03:41:21;;;;;;;4.68;2.72;;;;;;;19.04;43.12;100495.13;5050402;28;20053;-45
2023/10/07 03:43:47;;;;;;;6.25;2.67;;;;;;;19.18;43.69;100489.44;5050555;28;20025;-46
2023/10/07 03:46:16;;;;;;;5.43;2.65;;;;;;;19.32;42.17;100499.69;5050700;28;20044;-43
2023/10/07 03:48:49;;;;;;;6.22;2.58;;;;;;;19.09;43.03;100491.69;5050531;28;20056;-44
2023/10/07 03:51:15;;;;;;;8.40;2.80;;;;;;;19.18;43.68;100500.22;5050611;28;20029;-42
2023/10/07 03:53:46;;;;;;;5.72;2.70;;;;;;;19.11;42.62;100501.22;5050210;28;20063;-45
2023/10/07 03:56:12;;;;;;;3.75;2.63;;;;;;;19.05;42.62;100501.34;5050259;28;20033;-44
2023/10/07 03:58:41;;;;;;;5.15;2.85;;;;;;;18.87;42.95;100503.16;5050880;28;20032;-47
2023/10/07 04:01:22;;;;;;;6.03;2.90;;;;;;;18.33;43.83;100503.38;5049933;28;20052;-44
2023/10/07 04:03:50;;;;;;;5.40;2.72;;;;;;;18.36;44.21;100500.19;5050380;28;20385;-44
2023/10/07 04:06:17;;;;;;;5.78;2.50;;;;;;;18.76;43.58;100509.38;5050357;28;20032;-44
2023/10/07 04:08:54;;;;;;;6.63;2.97;;;;;;;18.29;44.42;100515.66;5050123;28;20061;-43
2023/10/07 04:11:25;;;;;;;6.63;2.75;;;;;;;18.11;44.49;100515.81;5050383;28;20065;-43
2023/10/07 04:13:53;;;;;;;4.97;2.97;;;;;;;18.35;43.94;100513.91;5050457;28;20032;-44
2023/10/07 04:16:27;;;;;;;5.55;2.60;;;;;;;18.39;43.89;100514.25;5052239;28;20032;-42
2023/10/07 04:19:09;;;;;;;10.65;2.90;;;;;;;18.56;43.87;100521.38;5053935;28;20029;-43
2023/10/07 04:21:39;;;;;;;7.50;3.10;;;;;;;18.69;43.66;100509.50;5053999;28;20565;-43
2023/10/07 04:24:09;;;;;;;5.18;3.08;;;;;;;18.51;44.11;100515.88;5054381;28;20029;-42
2023/10/07 04:26:39;;;;;;;5.40;2.90;;;;;;;18.57;44.26;100508.72;5053953;28;20131;-42
2023/10/07 04:29:07;;;;;;;6.53;2.90;;;;;;;18.88;43.32;100522.84;5053709;28;20556;-42
2023/10/07 04:31:37;;;;;;;4.17;2.97;;;;;;;18.90;43.82;100516.16;5054087;28;20032;-44
2023/10/07 04:34:11;;;;;;;43.78;26.60;;;;;;;18.80;43.26;100526.75;5053754;28;20032;-41
2023/10/07 04:36:54;;;;;;;52.60;28.63;;;;;;;18.95;43.05;100524.34;5054016;28;20045;-42
2023/10/07 04:39:27;;;;;;;51.72;30.63;;;;;;;19.08;42.54;100528.66;5053672;28;20035;-43
2023/10/07 04:41:57;;;;;;;45.13;23.65;;;;;;;19.07;42.90;100527.00;5054160;28;20105;-44
2023/10/07 04:45:00;;;;;;;14.77;7.68;;;;;;;19.05;42.43;100520.22;5053928;28;20497;-43
2023/10/07 04:49:57;;;;;;;7.70;3.00;;;;;;;19.18;42.37;100529.91;5053822;28;20343;-43
2023/10/07 04:52:28;;;;;;;7.53;3.25;;;;;;;19.13;42.48;100523.34;5053592;28;20021;-42
2023/10/07 04:54:56;;;;;;;6.22;3.42;;;;;;;19.16;43.05;100527.44;5053203;28;20017;-44
2023/10/07 04:57:43;;;;;;;6.28;2.95;;;;;;;19.10;42.28;100531.91;5053480;28;20465;-44
2023/10/07 05:00:09;;;;;;;5.13;2.75;;;;;;;19.04;42.47;100537.44;5053636;28;20037;-43
2023/10/07 05:02:35;;;;;;;5.78;3.00;;;;;;;19.12;42.46;100540.59;5053929;28;20063;-43
2023/10/07 05:05:09;;;;;;;5.30;3.03;;;;;;;19.14;43.38;100543.88;5053235;28;20423;-42
2023/10/07 05:07:38;;;;;;;9.60;3.47;;;;;;;19.23;42.43;100551.56;5053253;28;20040;-42
2023/10/07 05:10:07;;;;;;;12.20;6.97;;;;;;;19.56;42.52;100545.44;5052498;28;20569;-44
2023/10/07 05:12:33;;;;;;;9.40;5.45;;;;;;;19.72;41.83;100558.16;5052680;28;20443;-45
2023/10/07 05:15:00;;;;;;;5.13;3.33;;;;;;;19.64;42.92;100550.41;5052395;28;20024;-43
2023/10/07 05:17:28;;;;;;;4.80;3.08;;;;;;;20.15;41.96;100552.34;5052602;28;20492;-42
2023/10/07 05:19:56;;;;;;;5.53;3.25;;;;;;;20.54;42.93;100550.44;5052596;28;20506;-42
2023/10/07 05:22:23;;;;;;;7.10;3.00;;;;;;;20.53;41.05;100553.44;5052606;28;20025;-42
2023/10/07 05:24:51;;;;;;;9.73;3.20;;;;;;;20.06;41.47;100543.84;5052650;28;20108;-41
2023/10/07 05:27:18;;;;;;;6.17;2.93;;;;;;;20.36;40.68;100545.34;5051820;28;20104;-43
2023/10/07 05:29:45;;;;;;;5.65;3.10;;;;;;;20.90;39.70;100548.25;5052777;28;20532;-43
2023/10/07 05:32:11;;;;;;;4.85;2.75;;;;;;;21.06;40.17;100549.25;5053244;28;20117;-44
2023/10/07 05:34:37;;;;;;;6.50;3.70;;;;;;;21.55;39.30;100554.66;5053114;28;20531;-41
2023/10/07 05:37:11;;;;;;;9.35;3.30;;;;;;;21.57;39.29;100557.94;5052687;28;20443;-42
2023/10/07 05:39:41;;;;;;;7.57;3.20;;;;;;;21.69;38.52;100560.47;5052483;28;20151;-44
2023/10/07 05:42:07;;;;;;;6.15;3.10;;;;;;;22.08;38.41;100568.34;5052152;28;20108;-41
2023/10/07 05:44:35;;;;;;;6.20;3.28;;;;;;;22.38;37.46;100556.09;5051957;28;20020;-43
2023/10/07 05:47:02;;;;;;;5.57;3.17;;;;;;;22.75;37.07;100563.34;5045061;28;20106;-43
2023/10/07 05:49:28;;;;;;;6.30;3.28;;;;;;;22.62;37.20;100556.53;5051807;28;20036;-41
2023/10/07 05:51:54;;;;;;;6.07;3.20;;;;;;;22.62;37.03;100570.88;5052539;28;20028;-42
2023/10/07 05:54:19;;;;;;;6.30;3.28;;;;;;;22.97;36.67;100571.31;5052666;28;20025;-44
2023/10/07 05:56:47;;;;;;;6.35;3.45;;;;;;;23.20;36.35;100576.28;5052265;28;20017;-42
2023/10/07 05:59:14;;;;;;;8.23;3.38;;;;;;;23.80;35.48;100582.13;5050603;28;20415;-42
2023/10/07 06:01:39;;;;;;;16.63;8.95;;;;;;;24.19;34.39;100578.81;5051132;28;20055;-42
2023/10/07 06:04:07;;;;;;;10.18;6.00;;;;;;;24.34;34.04;100579.91;5051058;28;20021;-44
2023/10/07 06:06:33;;;;;;;6.65;3.80;;;;;;;24.43;34.02;100582.84;5050903;28;20033;-43
2023/10/07 06:09:02;;;;;;;7.38;3.45;;;;;;;24.83;33.54;100581.97;5051503;28;20063;-42
2023/10/07 06:11:29;;;;;;;6.13;3.47;;;;;;;24.75;33.14;100585.25;5048749;28;20096;-43
2023/10/07 06:13:55;;;;;;;7.07;3.25;;;;;;;24.76;33.08;100578.72;5049358;28;20029;-41
2023/10/07 06:16:20;;;;;;;5.70;3.10;;;;;;;24.51;33.29;100583.16;5049688;28;20023;-42
2023/10/07 06:18:45;;;;;;;7.85;3.30;;;;;;;23.58;34.63;100579.63;5049292;28;20047;-43
2023/10/07 06:21:19;;;;;;;7.13;3.28;;;;;;;24.12;34.09;100581.03;5049160;28;20100;-43
2023/10/07 06:23:51;;;;;;;6.38;2.97;;;;;;;24.94;33.07;100582.72;5048803;28;20111;-43
2023/10/07 06:26:16;;;;;;;7.20;3.60;;;;;;;25.45;32.39;100582.47;5049210;28;20021;-43
2023/10/07 06:28:48;;;;;;;5.80;3.30;;;;;;;24.90;33.31;100581.66;5048735;28;20090;-42
2023/10/07 06:31:14;;;;;;;8.32;3.70;;;;;;;25.44;32.71;100580.84;5048805;28;20467;-41
2023/10/07 06:33:47;;;;;;;7.13;3.63;;;;;;;25.45;32.60;100568.03;5049136;28;20028;-42
2023/10/07 06:36:14;;;;;;;9.40;5.22;;;;;;;26.23;31.55;100575.31;5049617;28;20561;-43
2023/10/07 06:38:51;;;;;;;7.20;4.85;;;;;;;26.53;31.12;100573.38;5048660;28;20049;-42
2023/10/07 06:41:18;;;;;;;7.13;3.70;;;;;;;26.73;30.98;100561.41;5049546;28;20029;-44
2023/10/07 06:43:49;;;;;;;7.43;3.30;;;;;;;27.24;30.30;100560.75;5048990;28;20029;-43
2023/10/07 06:46:20;;;;;;;7.07;3.80;;;;;;;26.82;30.17;100558.88;5048719;28;20037;-42
2023/10/07 06:48:48;;;;;;;5.65;3.65;;;;;;;27.32;29.82;100566.69;5048643;28;20511;-43
2023/10/07 06:51:14;;;;;;;6.38;3.58;;;;;;;26.90;30.06;100556.31;5048022;28;20114;-42
2023/10/07 06:53:42;;;;;;;6.03;3.70;;;;;;;26.92;30.09;100562.28;5048618;28;20029;-45
2023/10/07 06:56:24;;;;;;;7.07;4.10;;;;;;;27.05;30.22;100568.91;5049510;28;20414;-41
2023/10/07 06:58:59;;;;;;;9.52;3.47;;;;;;;27.65;29.25;100575.75;5049721;28;20271;-45
2023/10/07 07:04:16;;;;;;;7.35;3.50;;;;;;;28.10;28.91;100562.41;5049154;28;20036;-43
2023/10/07 07:06:43;;;;;;;7.70;4.03;;;;;;;28.78;27.84;100560.84;5048586;28;20479;-44
2023/10/07 07:12:09;;;;;;;5.53;2.92;;;;;;;29.13;26.98;100564.00;5049219;28;20147;-42
2023/10/07 07:14:34;;;;;;;7.35;3.20;;;;;;;29.01;26.98;100556.25;5048238;28;20028;-44
2023/10/07 07:17:37;;;;;;;6.35;3.03;;;;;;;28.74;27.23;100561.78;5048892;28;20083;-43
2023/10/07 07:22:44;;;;;;;5.40;3.22;;;;;;;28.74;27.61;100556.31;5047778;28;20086;-44
2023/10/07 07:25:12;;;;;;;6.80;3.22;;;;;;;28.46;27.90;100556.28;5047225;28;20040;-47
2023/10/07 07:27:50;;;;;;;6.07;3.20;;;;;;;27.80;28.63;100547.34;5048058;28;20025;-46
2023/10/07 07:30:19;;;;;;;5.43;2.67;;;;;;;28.51;27.65;100545.22;5046875;28;20021;-43
2023/10/07 07:32:55;;;;;;;6.25;3.03;;;;;;;28.51;27.31;100547.97;5047076;28;20024;-43
2023/10/07 07:35:22;;;;;;;7.47;2.90;;;;;;;28.87;26.77;100555.47;5046781;28;20042;-45
2023/10/07 07:37:51;;;;;;;5.20;3.00;;;;;;;29.02;26.73;100552.41;5046864;28;20393;-43
2023/10/07 07:41:03;;;;;;;5.00;2.90;;;;;;;29.21;26.54;100549.53;5047402;28;20024;-44
2023/10/07 07:43:07;;;;;;;6.03;3.20;;;;;;;28.35;27.76;100550.22;5044835;28;20120;-42
2023/10/07 07:45:35;;;;;;;6.68;3.30;;;;;;;27.80;28.40;100539.16;5047821;28;20029;-43
2023/10/07 07:48:04;;;;;;;4.55;2.97;;;;;;;28.25;27.89;100545.75;5048213;28;20445;-41
2023/10/07 07:50:35;;;;;;;6.95;3.15;;;;;;;28.78;27.71;100535.41;5048878;28;20416;-46
2023/10/07 07:53:12;;;;;;;4.07;2.92;;;;;;;28.55;27.92;100529.03;5052101;28;20029;-43
2023/10/07 07:55:47;;;;;;;5.10;3.17;;;;;;;29.31;27.18;100528.50;5053085;28;20033;-42
2023/10/07 07:58:13;;;;;;;4.30;3.10;;;;;;;29.75;26.77;100535.94;5053012;28;20469;-42
2023/10/07 08:00:44;;;;;;;6.22;3.53;;;;;;;30.02;26.21;100529.47;5052845;28;20053;-41
2023/10/07 08:03:11;;;;;;;6.15;3.42;;;;;;;30.43;25.58;100521.28;5053588;28;20037;-44
2023/10/07 08:05:39;;;;;;;4.93;3.13;;;;;;;30.94;25.31;100517.03;5054680;28;20032;-43
2023/10/07 08:08:17;;;;;;;8.13;3.20;;;;;;;29.96;26.08;100525.22;5054325;28;20126;-42
2023/10/07 08:10:43;;;;;;;6.15;3.60;;;;;;;30.31;25.88;100521.81;5054225;28;20033;-41
2023/10/07 08:13:08;;;;;;;5.05;3.28;;;;;;;30.45;25.17;100514.31;5054492;28;20032;-43
2023/10/07 08:15:39;;;;;;;8.38;4.25;;;;;;;30.24;25.85;100513.28;5052742;28;20107;-41
2023/10/07 08:18:07;;;;;;;6.72;3.67;;;;;;;30.07;25.34;100497.53;5052384;28;20036;-42
2023/10/07 08:20:44;;;;;;;8.02;3.38;;;;;;;30.86;25.07;100512.31;5052207;28;20024;-42
2023/10/07 08:23:22;;;;;;;5.35;3.42;;;;;;;30.99;24.93;100517.66;5051667;28;20106;-43
2023/10/07 08:25:49;;;;;;;6.00;3.55;;;;;;;30.79;24.88;100512.78;5051624;28;20043;-42
2023/10/07 08:28:18;;;;;;;7.80;4.75;;;;;;;31.22;25.04;100508.47;5052557;28;20087;-41
2023/10/07 08:30:46;;;;;;;12.82;4.38;;;;;;;31.21;24.94;100509.63;5051959;28;20526;-43
2023/10/07 08:33:16;;;;;;;5.20;3.67;;;;;;;31.05;24.87;100503.78;5052257;28;20123;-46
2023/10/07 08:35:47;;;;;;;8.82;3.85;;;;;;;30.47;26.05;100505.78;5051657;28;20150;-44
2023/10/07 08:38:37;;;;;;;5.57;3.33;;;;;;;30.75;25.70;100500.84;5052219;28;20108;-43
2023/10/07 08:41:04;;;;;;;6.53;3.70;;;;;;;31.22;25.07;100502.97;5051895;28;20025;-44
2023/10/07 08:44:03;;;;;;;5.60;3.35;;;;;;;31.39;24.67;100494.69;5051395;28;20116;-43
2023/10/07 08:46:24;;;;;;;8.75;3.80;;;;;;;31.29;24.79;100495.84;5051933;28;20044;-43
2023/10/07 08:48:58;;;;;;;7.13;3.90;;;;;;;31.19;24.64;100485.19;5051977;28;20039;-46
2023/10/07 08:51:24;;;;;;;5.90;3.00;;;;;;;31.39;24.16;100478.19;5052196;28;20033;-44
2023/10/07 08:54:05;;;;;;;6.10;3.17;;;;;;;31.76;23.68;100478.66;5051751;28;20028;-46
2023/10/07 08:56:36;;;;;;;9.38;3.35;;;;;;;31.92;23.45;100484.41;5051565;28;20152;-46
2023/10/07 08:59:12;;;;;;;7.10;3.60;;;;;;;31.93;23.53;100475.81;5051280;28;20096;-43
2023/10/07 09:01:43;;;;;;;7.22;3.15;;;;;;;31.81;23.79;100474.91;5050326;28;20099;-43
2023/10/07 09:04:08;;;;;;;6.25;3.88;;;;;;;31.45;23.73;100462.34;5051159;28;20059;-43
2023/10/07 09:06:45;;;;;;;10.98;6.00;;;;;;;31.41;24.02;100473.19;5051227;28;20547;-44
2023/10/07 09:09:11;;;;;;;5.45;3.80;;;;;;;31.16;24.56;100469.34;5052150;28;20040;-44
2023/10/07 09:11:37;;;;;;;5.63;3.50;;;;;;;30.84;24.14;100468.66;5051437;28;20035;-46
2023/10/07 09:14:06;;;;;;;5.15;3.08;;;;;;;31.23;23.85;100461.41;5052196;28;20067;-43
2023/10/07 09:16:32;;;;;;;4.60;3.30;;;;;;;31.28;24.12;100454.94;5052985;28;20063;-49
2023/10/07 09:18:59;;;;;;;5.30;2.90;;;;;;;31.68;23.55;100449.19;5053131;28;20492;-41
2023/10/07 09:21:33;;;;;;;5.00;3.13;;;;;;;31.58;23.42;100447.63;5052483;28;20525;-41
2023/10/07 09:24:00;;;;;;;7.50;3.60;;;;;;;31.45;23.41;100424.66;5051751;28;20031;-43
2023/10/07 09:26:36;;;;;;;5.20;3.17;;;;;;;31.71;23.22;100452.09;5051767;28;20067;-44
2023/10/07 09:29:15;;;;;;;5.25;3.03;;;;;;;31.82;22.84;100436.06;5051581;28;20029;-43
2023/10/07 09:31:45;;;;;;;4.97;3.20;;;;;;;31.60;23.28;100436.28;5051297;28;20104;-43
2023/10/07 09:34:24;;;;;;;26.40;16.88;;;;;;;32.00;22.80;100425.75;5051791;28;20045;-44
2023/10/07 09:36:53;;;;;;;7.22;4.85;;;;;;;32.23;22.47;100414.50;5051455;28;20025;-44
2023/10/07 09:39:43;;;;;;;6.70;3.40;;;;;;;31.67;22.84;100415.41;5051970;28;20071;-44
2023/10/07 09:42:26;;;;;;;5.45;3.15;;;;;;;31.73;23.33;100414.06;5031879;28;20117;-42
2023/10/07 09:44:55;;;;;;;6.97;4.90;;;;;;;31.94;22.88;100418.84;5031650;28;20041;-43
2023/10/07 09:47:22;;;;;;;10.57;4.65;;;;;;;31.91;22.84;100406.56;5031690;28;20041;-44
2023/10/07 09:49:47;;;;;;;5.70;3.35;;;;;;;32.03;22.23;100402.31;5031297;28;20133;-42
2023/10/07 09:52:17;;;;;;;8.52;3.70;;;;;;;31.62;22.66;100406.50;5030847;28;20052;-43
2023/10/07 09:55:22;;;;;;;5.78;3.67;;;;;;;31.40;22.88;100404.75;5030537;28;20485;-45
2023/10/07 09:58:11;;;;;;;6.35;3.67;;;;;;;31.03;23.69;100399.66;5030383;28;20036;-44
2023/10/07 10:01:29;;;;;;;6.03;3.80;;;;;;;30.50;24.34;100389.81;5030571;28;20057;-44
2023/10/07 10:04:27;;;;;;;8.07;3.33;;;;;;;30.00;24.59;100388.25;5028380;28;20124;-44
2023/10/07 10:07:12;;;;;;;7.15;3.55;;;;;;;29.82;25.28;100384.66;5031623;28;20512;-43
2023/10/07 10:10:05;;;;;;;5.57;3.40;;;;;;;29.45;25.41;100378.47;5030338;28;20040;-47
2023/10/07 10:12:50;;;;;;;7.00;4.22;;;;;;;29.48;26.08;100372.38;5030751;28;20029;-43
2023/10/07 10:17:53;;;;;;;6.05;3.60;;;;;;;30.33;25.12;100363.97;5029567;28;20038;-42
2023/10/07 10:20:21;;;;;;;10.60;4.07;;;;;;;30.20;25.59;100357.47;5031671;28;20032;-45
2023/10/07 10:22:53;;;;;;;;;;;;;;;31.24;24.91;100358.56;5031081;28;20032;-45
2023/10/07 10:25:28;;;;;;;6.35;3.53;;;;;;;31.79;24.25;100340.41;5029363;28;20304;-44
2023/10/07 10:28:02;;;;;;;6.55;3.80;;;;;;;31.74;23.32;100332.38;5049487;28;20503;-43
2023/10/07 10:30:28;;;;;;;9.13;3.97;;;;;;;31.39;23.74;100329.72;5048786;28;20057;-42
2023/10/07 10:32:57;;;;;;;5.20;3.58;;;;;;;30.79;24.73;100323.25;5049031;28;20071;-42
2023/10/07 10:35:24;;;;;;;;;;;;;;;30.58;24.76;100317.63;5050179;28;20029;-44
2023/10/07 10:37:59;;;;;;;9.05;4.07;;;;;;;30.47;24.90;100302.63;5049988;28;20395;-45
2023/10/07 10:40:31;;;;;;;8.35;3.80;;;;;;;30.07;25.14;100302.72;5050504;28;20461;-44
2023/10/07 10:42:57;;;;;;;5.63;3.47;;;;;;;29.77;25.41;100295.06;5050301;28;20048;-45
2023/10/07 10:45:29;;;;;;;6.88;3.90;;;;;;;29.77;25.34;100297.03;5051239;28;20124;-47
2023/10/07 10:47:58;;;;;;;5.40;3.70;;;;;;;29.24;25.85;100291.34;5050752;28;20031;-41
2023/10/07 10:50:24;;;;;;;8.65;3.47;;;;;;;29.45;25.72;100288.00;5050876;28;20021;-44
2023/10/07 10:52:59;;;;;;;5.25;3.47;;;;;;;30.02;26.09;100278.97;5050268;28;20029;-43
2023/10/07 10:55:25;;;;;;;11.00;4.00;;;;;;;30.13;25.08;100276.75;5050309;28;20428;-44
2023/10/07 10:57:52;;;;;;;7.60;3.42;;;;;;;30.83;24.84;100269.28;5050252;28;20025;-43
2023/10/07 11:00:23;;;;;;;6.95;3.97;;;;;;;31.22;24.71;100264.63;5049543;28;20048;-41
2023/10/07 11:02:50;;;;;;;9.80;3.50;;;;;;;31.59;24.21;100259.47;5050096;28;20021;-43
2023/10/07 11:05:16;;;;;;;5.72;3.50;;;;;;;31.75;23.47;100251.44;5050247;28;20020;-44
2023/10/07 11:07:44;;;;;;;8.65;3.90;;;;;;;32.04;23.47;100255.31;5050197;28;20098;-43
2023/10/07 11:10:10;;;;;;;7.72;3.65;;;;;;;31.50;23.91;100247.72;5049435;28;20116;-40
2023/10/07 11:12:37;;;;;;;4.35;3.15;;;;;;;31.24;24.24;100245.88;5049978;28;20025;-44
2023/10/07 11:15:07;;;;;;;6.25;3.28;;;;;;;31.82;22.83;100243.47;5049179;28;20435;-46
2023/10/07 11:17:38;;;;;;;4.78;3.22;;;;;;;31.36;23.96;100239.69;5049818;28;20122;-43
2023/10/07 11:20:08;;;;;;;4.70;3.05;;;;;;;31.52;23.66;100234.44;5049948;28;20095;-42
2023/10/07 11:22:38;;;;;;;6.13;3.35;;;;;;;31.84;23.91;100226.63;5050417;28;20091;-43
2023/10/07 11:25:06;;;;;;;7.32;3.45;;;;;;;32.01;23.39;100228.44;5050142;28;20033;-44
2023/10/07 11:27:32;;;;;;;6.70;3.50;;;;;;;32.30;23.04;100222.06;5049822;28;20048;-46
2023/10/07 11:29:59;;;;;;;6.93;3.65;;;;;;;32.10;22.97;100210.75;5048767;28;20025;-47
2023/10/07 11:32:30;;;;;;;5.43;3.63;;;;;;;32.34;22.15;100217.47;5049028;28;20158;-44
2023/10/07 11:34:59;;;;;;;7.70;3.40;;;;;;;32.48;21.96;100208.91;5049665;28;20096;-46
2023/10/07 11:37:26;;;;;;;5.72;3.65;;;;;;;32.19;22.54;100204.34;5049815;28;20029;-44
2023/10/07 11:39:53;;;;;;;6.32;3.80;;;;;;;31.92;22.76;100203.75;5049808;28;20484;-43
2023/10/07 11:42:22;;;;;;;4.63;3.40;;;;;;;32.10;22.58;100194.22;5050477;28;20029;-42
2023/10/07 11:44:53;;;;;;;5.90;3.50;;;;;;;31.85;23.00;100200.72;5048647;28;20484;-43
2023/10/07 11:47:19;;;;;;;5.07;3.20;;;;;;;31.66;23.34;100199.25;5049596;28;20021;-44
2023/10/07 11:49:48;;;;;;;4.53;3.42;;;;;;;32.32;22.72;100190.28;5049049;28;20029;-43
2023/10/07 11:52:18;;;;;;;4.65;3.40;;;;;;;32.64;22.17;100185.13;5049082;28;20500;-43
2023/10/07 11:54:47;;;;;;;4.95;3.47;;;;;;;33.05;21.48;100177.81;5049759;28;20385;-46
2023/10/07 11:57:13;;;;;;;;;;;;;;;33.60;21.07;100170.03;5050833;28;20024;-45
2023/10/07 11:59:42;;;;;;;7.07;3.10;;;;;;;33.09;20.54;100167.69;5050224;28;19913;-42
2023/10/07 12:02:11;;;;;;;4.95;2.95;;;;;;;32.80;21.23;100176.97;5049781;28;20053;-47
2023/10/07 12:04:47;;;;;;;4.95;3.20;;;;;;;32.48;21.32;100173.09;5049266;28;20021;-42
2023/10/07 12:07:14;;;;;;;7.47;3.30;;;;;;;32.79;21.35;100161.59;5049856;28;20029;-45
2023/10/07 12:09:51;;;;;;;4.38;3.17;;;;;;;33.00;21.24;100155.19;5049489;28;20418;-46
2023/10/07 12:12:17;;;;;;;4.70;3.45;;;;;;;32.79;21.24;100160.81;5049068;28;20032;-47
2023/10/07 12:14:42;;;;;;;4.65;3.10;;;;;;;32.50;21.07;100155.13;5049087;28;20029;-51